sensor_id;sensor_type;location;lat;lon;timestamp;pressure;altitude;pressure_sealevel;temperature;humidity
13420;BME280;6781;58.440;15.470;2023-09-12T00:00:40;102520.69;;;15.65;100.00
13420;BME280;6781;58.440;15.470;2023-09-12T00:03:07;102536.38;;;15.65;100.00
13420;BME280;6781;58.440;15.470;2023-09-12T00:05:34;102538.69;;;15.69;100.00
13420;BME280;6781;58.440;15.470;2023-09-12T00:08:02;102491.41;;;15.34;100.00
13420;BME280;6781;58.440;15.470;2023-09-12T00:10:30;102542.44;;;15.52;100.00
13420;BME280;6781;58.440;15.470;2023-09-12T00:12:58;102515.25;;;15.55;100.00
13420;BME280;6781;58.440;15.470;2023-09-12T00:15:27;102470.28;;;15.37;100.00
13420;BME280;6781;58.440;15.470;2023-09-12T00:17:55;102529.03;;;15.70;100.00
13420;BME280;6781;58.440;15.470;2023-09-12T00:20:22;102445.59;;;15.16;100.00
13420;BME280;6781;58.440;15.470;2023-09-12T00:22:49;102443.28;;;15.11;100.00
13420;BME280;6781;58.440;15.470;2023-09-12T00:25:16;102509.06;;;15.69;100.00
13420;BME280;6781;58.440;15.470;2023-09-12T00:27:44;102369.69;;;14.79;100.00
13420;BME280;6781;58.440;15.470;2023-09-12T00:30:13;102386.84;;;14.96;100.00
13420;BME280;6781;58.440;15.470;2023-09-12T00:32:40;102485.72;;;15.66;100.00
13420;BME280;6781;58.440;15.470;2023-09-12T00:35:08;102500.38;;;15.68;100.00
13420;BME280;6781;58.440;15.470;2023-09-12T00:37:35;102429.91;;;15.28;100.00
13420;BME280;6781;58.440;15.470;2023-09-12T00:40:02;102472.13;;;15.60;100.00
13420;BME280;6781;58.440;15.470;2023-09-12T00:42:29;102470.50;;;15.59;100.00
13420;BME280;6781;58.440;15.470;2023-09-12T00:44:57;102470.66;;;15.56;100.00
13420;BME280;6781;58.440;15.470;2023-09-12T00:47:25;102454.97;;;15.56;100.00
13420;BME280;6781;58.440;15.470;2023-09-12T00:49:54;102379.22;;;15.06;100.00
13420;BME280;6781;58.440;15.470;2023-09-12T00:52:22;102413.16;;;15.44;100.00
13420;BME280;6781;58.440;15.470;2023-09-12T00:54:54;102438.66;;;15.53;100.00
13420;BME280;6781;58.440;15.470;2023-09-12T00:57:23;102442.09;;;15.53;100.00
13420;BME280;6781;58.440;15.470;2023-09-12T00:59:51;102433.63;;;15.50;100.00
13420;BME280;6781;58.440;15.470;2023-09-12T01:02:20;102423.06;;;15.51;100.00
13420;BME280;6781;58.440;15.470;2023-09-12T01:04:48;102380.53;;;15.24;100.00
13420;BME280;6781;58.440;15.470;2023-09-12T01:07:15;102372.19;;;15.19;100.00
13420;BME280;6781;58.440;15.470;2023-09-12T01:09:43;102393.63;;;15.24;100.00
13420;BME280;6781;58.440;15.470;2023-09-12T01:12:10;102366.22;;;15.17;100.00
13420;BME280;6781;58.440;15.470;2023-09-12T01:14:40;102274.63;;;14.69;100.00
13420;BME280;6781;58.440;15.470;2023-09-12T01:17:07;102357.34;;;15.19;100.00
13420;BME280;6781;58.440;15.470;2023-09-12T01:19:36;102408.97;;;15.41;100.00
13420;BME280;6781;58.440;15.470;2023-09-12T01:22:26;102368.31;;;15.12;100.00
13420;BME280;6781;58.440;15.470;2023-09-12T01:25:34;102243.88;;;14.34;100.00
13420;BME280;6781;58.440;15.470;2023-09-12T01:28:11;102380.53;;;15.37;100.00
13420;BME280;6781;58.440;15.470;2023-09-12T01:30:42;102378.22;;;15.32;100.00
13420;BME280;6781;58.440;15.470;2023-09-12T01:33:09;102416.50;;;15.33;100.00
13420;BME280;6781;58.440;15.470;2023-09-12T01:35:37;102239.09;;;14.41;100.00
13420;BME280;6781;58.440;15.470;2023-09-12T01:38:04;102404.59;;;15.29;100.00
13420;BME280;6781;58.440;15.470;2023-09-12T01:40:35;102274.00;;;14.53;100.00
13420;BME280;6781;58.440;15.470;2023-09-12T01:43:04;102264.38;;;14.53;100.00
13420;BME280;6781;58.440;15.470;2023-09-12T01:45:35;102297.41;;;14.67;100.00
13420;BME280;6781;58.440;15.470;2023-09-12T01:48:04;102378.44;;;15.29;100.00
13420;BME280;6781;58.440;15.470;2023-09-12T01:50:33;102375.84;;;15.29;100.00
13420;BME280;6781;58.440;15.470;2023-09-12T01:53:02;102348.34;;;15.11;100.00
13420;BME280;6781;58.440;15.470;2023-09-12T01:55:29;102393.50;;;15.25;100.00
13420;BME280;6781;58.440;15.470;2023-09-12T01:57:57;102381.16;;;15.27;100.00
13420;BME280;6781;58.440;15.470;2023-09-12T02:00:24;102353.81;;;15.08;100.00
13420;BME280;6781;58.440;15.470;2023-09-12T02:05:28;102185.94;;;14.04;100.00
13420;BME280;6781;58.440;15.470;2023-09-12T02:07:55;102347.94;;;15.04;100.00
13420;BME280;6781;58.440;15.470;2023-09-12T02:10:22;102392.25;;;15.31;100.00
13420;BME280;6781;58.440;15.470;2023-09-12T02:12:49;102291.97;;;14.57;100.00
13420;BME280;6781;58.440;15.470;2023-09-12T02:15:16;102314.72;;;14.68;100.00
13420;BME280;6781;58.440;15.470;2023-09-12T02:17:43;102421.75;;;15.33;100.00
13420;BME280;6781;58.440;15.470;2023-09-12T02:20:10;102421.53;;;15.36;100.00
13420;BME280;6781;58.440;15.470;2023-09-12T02:22:38;102321.31;;;14.61;100.00
13420;BME280;6781;58.440;15.470;2023-09-12T02:25:06;102447.47;;;15.39;100.00
13420;BME280;6781;58.440;15.470;2023-09-12T02:27:34;102464.19;;;15.49;100.00
13420;BME280;6781;58.440;15.470;2023-09-12T02:30:01;102409.84;;;15.04;100.00
13420;BME280;6781;58.440;15.470;2023-09-12T02:32:30;102464.41;;;15.34;100.00
13420;BME280;6781;58.440;15.470;2023-09-12T02:34:57;102496.19;;;15.53;100.00
13420;BME280;6781;58.440;15.470;2023-09-12T02:37:27;102514.00;;;15.60;100.00
13420;BME280;6781;58.440;15.470;2023-09-12T02:39:55;102541.81;;;15.61;100.00
13420;BME280;6781;58.440;15.470;2023-09-12T02:42:22;102555.41;;;15.41;100.00
13420;BME280;6781;58.440;15.470;2023-09-12T02:44:49;102598.97;;;15.68;100.00
13420;BME280;6781;58.440;15.470;2023-09-12T02:47:17;102572.38;;;15.48;100.00
13420;BME280;6781;58.440;15.470;2023-09-12T02:49:44;102498.56;;;14.92;100.00
13420;BME280;6781;58.440;15.470;2023-09-12T02:52:11;102605.66;;;15.46;100.00
13420;BME280;6781;58.440;15.470;2023-09-12T02:54:38;102647.63;;;15.70;100.00
13420;BME280;6781;58.440;15.470;2023-09-12T02:57:07;102683.84;;;15.76;100.00
13420;BME280;6781;58.440;15.470;2023-09-12T02:59:33;102701.63;;;15.71;100.00
13420;BME280;6781;58.440;15.470;2023-09-12T03:02:00;102660.72;;;15.30;100.00
13420;BME280;6781;58.440;15.470;2023-09-12T03:04:27;102727.38;;;15.65;100.00
13420;BME280;6781;58.440;15.470;2023-09-12T03:06:56;102718.84;;;15.48;100.00
13420;BME280;6781;58.440;15.470;2023-09-12T03:09:23;102705.84;;;15.34;100.00
13420;BME280;6781;58.440;15.470;2023-09-12T03:11:50;102658.69;;;15.09;100.00
13420;BME280;6781;58.440;15.470;2023-09-12T03:14:18;102773.53;;;15.66;100.00
13420;BME280;6781;58.440;15.470;2023-09-12T03:16:45;102684.13;;;15.19;100.00
13420;BME280;6781;58.440;15.470;2023-09-12T03:19:12;102751.22;;;15.33;100.00
13420;BME280;6781;58.440;15.470;2023-09-12T03:21:39;102785.25;;;15.60;100.00
13420;BME280;6781;58.440;15.470;2023-09-12T03:24:07;102805.34;;;15.59;100.00
13420;BME280;6781;58.440;15.470;2023-09-12T03:26:34;102818.19;;;15.62;100.00
13420;BME280;6781;58.440;15.470;2023-09-12T03:29:02;102763.94;;;15.25;100.00
13420;BME280;6781;58.440;15.470;2023-09-12T03:31:30;102838.34;;;15.75;100.00
13420;BME280;6781;58.440;15.470;2023-09-12T03:33:57;102863.38;;;15.79;100.00
13420;BME280;6781;58.440;15.470;2023-09-12T03:36:24;102854.44;;;15.69;100.00
13420;BME280;6781;58.440;15.470;2023-09-12T03:38:51;102820.13;;;15.46;100.00
13420;BME280;6781;58.440;15.470;2023-09-12T03:41:18;102826.00;;;15.50;100.00
13420;BME280;6781;58.440;15.470;2023-09-12T03:43:47;102867.53;;;15.69;100.00
13420;BME280;6781;58.440;15.470;2023-09-12T03:46:14;102863.31;;;15.66;100.00
13420;BME280;6781;58.440;15.470;2023-09-12T03:48:43;102785.00;;;15.09;100.00
13420;BME280;6781;58.440;15.470;2023-09-12T03:51:11;102762.31;;;14.95;100.00
13420;BME280;6781;58.440;15.470;2023-09-12T03:53:38;102857.84;;;15.56;100.00
13420;BME280;6781;58.440;15.470;2023-09-12T03:56:05;102717.19;;;14.65;100.00
13420;BME280;6781;58.440;15.470;2023-09-12T03:58:32;102740.03;;;14.76;100.00
13420;BME280;6781;58.440;15.470;2023-09-12T04:00:59;102838.84;;;15.26;100.00
13420;BME280;6781;58.440;15.470;2023-09-12T04:03:26;102763.47;;;14.77;100.00
13420;BME280;6781;58.440;15.470;2023-09-12T04:05:55;102826.13;;;15.34;100.00
13420;BME280;6781;58.440;15.470;2023-09-12T04:08:22;102705.09;;;14.50;100.00
13420;BME280;6781;58.440;15.470;2023-09-12T04:10:49;102877.03;;;15.57;100.00
13420;BME280;6781;58.440;15.470;2023-09-12T04:13:16;102884.56;;;15.61;100.00
13420;BME280;6781;58.440;15.470;2023-09-12T04:15:42;102867.75;;;15.51;100.00
13420;BME280;6781;58.440;15.470;2023-09-12T04:18:09;102716.25;;;14.80;100.00
13420;BME280;6781;58.440;15.470;2023-09-12T04:20:36;102868.81;;;15.76;100.00
13420;BME280;6781;58.440;15.470;2023-09-12T04:23:05;102851.78;;;15.56;100.00
13420;BME280;6781;58.440;15.470;2023-09-12T04:25:35;102876.13;;;15.71;100.00
13420;BME280;6781;58.440;15.470;2023-09-12T04:28:05;102784.44;;;15.04;100.00
13420;BME280;6781;58.440;15.470;2023-09-12T04:30:36;102850.59;;;15.33;100.00
13420;BME280;6781;58.440;15.470;2023-09-12T04:33:03;102844.25;;;15.37;100.00
13420;BME280;6781;58.440;15.470;2023-09-12T04:35:32;102934.31;;;15.88;100.00
13420;BME280;6781;58.440;15.470;2023-09-12T04:37:59;102840.13;;;15.33;100.00
13420;BME280;6781;58.440;15.470;2023-09-12T04:40:28;102854.16;;;15.32;100.00
13420;BME280;6781;58.440;15.470;2023-09-12T04:42:55;102893.81;;;15.53;100.00
13420;BME280;6781;58.440;15.470;2023-09-12T04:45:22;102921.53;;;15.70;100.00
13420;BME280;6781;58.440;15.470;2023-09-12T04:47:49;102939.13;;;15.68;100.00
13420;BME280;6781;58.440;15.470;2023-09-12T04:50:16;102967.69;;;15.85;100.00
13420;BME280;6781;58.440;15.470;2023-09-12T04:52:43;102864.25;;;15.10;100.00
13420;BME280;6781;58.440;15.470;2023-09-12T04:55:10;102827.56;;;14.97;100.00
13420;BME280;6781;58.440;15.470;2023-09-12T04:57:38;102865.19;;;15.23;100.00
13420;BME280;6781;58.440;15.470;2023-09-12T05:00:06;102924.19;;;15.55;100.00
13420;BME280;6781;58.440;15.470;2023-09-12T05:02:33;102954.53;;;15.72;100.00
13420;BME280;6781;58.440;15.470;2023-09-12T05:05:00;102983.66;;;15.94;100.00
13420;BME280;6781;58.440;15.470;2023-09-12T05:07:29;102886.19;;;15.36;100.00
13420;BME280;6781;58.440;15.470;2023-09-12T05:09:56;102993.28;;;15.94;100.00
13420;BME280;6781;58.440;15.470;2023-09-12T05:12:23;103029.16;;;16.06;100.00
13420;BME280;6781;58.440;15.470;2023-09-12T05:14:51;102974.97;;;15.80;100.00
13420;BME280;6781;58.440;15.470;2023-09-12T05:17:18;103035.31;;;16.19;100.00
13420;BME280;6781;58.440;15.470;2023-09-12T05:19:45;103058.50;;;16.25;100.00
13420;BME280;6781;58.440;15.470;2023-09-12T05:22:12;102979.66;;;15.75;100.00
13420;BME280;6781;58.440;15.470;2023-09-12T05:24:39;103102.44;;;16.35;100.00
13420;BME280;6781;58.440;15.470;2023-09-12T05:27:06;103103.88;;;16.26;100.00
13420;BME280;6781;58.440;15.470;2023-09-12T05:29:33;103131.81;;;16.40;100.00
13420;BME280;6781;58.440;15.470;2023-09-12T05:32:02;103033.13;;;15.71;100.00
13420;BME280;6781;58.440;15.470;2023-09-12T05:34:29;103105.28;;;16.17;100.00
13420;BME280;6781;58.440;15.470;2023-09-12T05:36:56;102996.03;;;15.64;100.00
13420;BME280;6781;58.440;15.470;2023-09-12T05:39:23;103115.53;;;16.35;100.00
13420;BME280;6781;58.440;15.470;2023-09-12T05:41:50;103129.31;;;16.38;100.00
13420;BME280;6781;58.440;15.470;2023-09-12T05:44:17;103050.69;;;15.83;100.00
13420;BME280;6781;58.440;15.470;2023-09-12T05:46:45;103129.00;;;16.43;100.00
13420;BME280;6781;58.440;15.470;2023-09-12T05:49:14;103156.69;;;16.61;100.00
13420;BME280;6781;58.440;15.470;2023-09-12T05:51:41;103004.72;;;15.79;100.00
13420;BME280;6781;58.440;15.470;2023-09-12T05:54:10;103046.56;;;16.07;100.00
13420;BME280;6781;58.440;15.470;2023-09-12T05:56:37;103113.59;;;16.38;100.00
13420;BME280;6781;58.440;15.470;2023-09-12T05:59:04;103159.09;;;16.64;100.00
13420;BME280;6781;58.440;15.470;2023-09-12T06:01:31;103050.13;;;16.06;100.00
13420;BME280;6781;58.440;15.470;2023-09-12T06:03:58;103003.22;;;15.75;100.00
13420;BME280;6781;58.440;15.470;2023-09-12T06:06:27;103156.78;;;16.74;100.00
13420;BME280;6781;58.440;15.470;2023-09-12T06:08:54;103024.31;;;16.00;100.00
13420;BME280;6781;58.440;15.470;2023-09-12T06:11:22;103072.50;;;16.39;100.00
13420;BME280;6781;58.440;15.470;2023-09-12T06:13:49;103136.66;;;16.74;100.00
13420;BME280;6781;58.440;15.470;2023-09-12T06:16:16;103214.25;;;17.18;100.00
13420;BME280;6781;58.440;15.470;2023-09-12T06:18:43;103122.41;;;16.78;100.00
13420;BME280;6781;58.440;15.470;2023-09-12T06:21:10;103072.56;;;16.66;100.00
13420;BME280;6781;58.440;15.470;2023-09-12T06:23:38;103183.94;;;17.39;100.00
13420;BME280;6781;58.440;15.470;2023-09-12T06:26:06;102968.72;;;16.23;100.00
13420;BME280;6781;58.440;15.470;2023-09-12T06:28:33;103052.97;;;16.71;100.00
13420;BME280;6781;58.440;15.470;2023-09-12T06:31:00;103116.25;;;17.19;100.00
13420;BME280;6781;58.440;15.470;2023-09-12T06:33:28;103175.00;;;17.69;100.00
13420;BME280;6781;58.440;15.470;2023-09-12T06:35:55;103171.97;;;17.75;100.00
13420;BME280;6781;58.440;15.470;2023-09-12T06:38:22;103083.09;;;17.31;100.00
13420;BME280;6781;58.440;15.470;2023-09-12T06:40:51;102962.69;;;16.75;100.00
13420;BME280;6781;58.440;15.470;2023-09-12T06:43:18;102966.47;;;16.84;100.00
13420;BME280;6781;58.440;15.470;2023-09-12T06:45:48;103109.16;;;17.72;100.00
13420;BME280;6781;58.440;15.470;2023-09-12T06:48:19;103110.22;;;17.82;100.00
13420;BME280;6781;58.440;15.470;2023-09-12T06:50:46;103155.66;;;18.33;100.00
13420;BME280;6781;58.440;15.470;2023-09-12T06:53:13;103144.81;;;18.38;100.00
13420;BME280;6781;58.440;15.470;2023-09-12T06:55:40;103128.59;;;18.44;100.00
13420;BME280;6781;58.440;15.470;2023-09-12T06:58:08;103125.53;;;18.50;100.00
13420;BME280;6781;58.440;15.470;2023-09-12T07:00:36;103007.22;;;18.02;100.00
13420;BME280;6781;58.440;15.470;2023-09-12T07:03:04;102892.31;;;17.56;100.00
13420;BME280;6781;58.440;15.470;2023-09-12T07:05:31;102869.44;;;17.58;100.00
13420;BME280;6781;58.440;15.470;2023-09-12T07:07:58;102868.78;;;17.68;100.00
13420;BME280;6781;58.440;15.470;2023-09-12T07:10:26;103048.22;;;19.00;100.00
13420;BME280;6781;58.440;15.470;2023-09-12T07:12:53;103056.84;;;19.25;100.00
13420;BME280;6781;58.440;15.470;2023-09-12T07:15:21;102912.56;;;18.63;100.00
13420;BME280;6781;58.440;15.470;2023-09-12T07:17:48;102847.31;;;18.68;100.00
13420;BME280;6781;58.440;15.470;2023-09-12T07:20:16;102798.19;;;18.68;100.00
13420;BME280;6781;58.440;15.470;2023-09-12T07:22:43;102756.84;;;18.70;100.00
13420;BME280;6781;58.440;15.470;2023-09-12T07:25:10;102742.94;;;18.91;100.00
13420;BME280;6781;58.440;15.470;2023-09-12T07:27:38;102662.19;;;18.70;100.00
13420;BME280;6781;58.440;15.470;2023-09-12T07:30:06;102678.38;;;19.18;100.00
13420;BME280;6781;58.440;15.470;2023-09-12T07:32:35;102727.34;;;19.74;100.00
13420;BME280;6781;58.440;15.470;2023-09-12T07:35:02;102544.34;;;18.96;100.00
13420;BME280;6781;58.440;15.470;2023-09-12T07:37:30;102624.88;;;19.71;100.00
13420;BME280;6781;58.440;15.470;2023-09-12T07:39:57;102423.81;;;18.80;100.00
13420;BME280;6781;58.440;15.470;2023-09-12T07:42:24;102533.53;;;19.71;100.00
13420;BME280;6781;58.440;15.470;2023-09-12T07:44:52;102499.19;;;19.73;100.00
13420;BME280;6781;58.440;15.470;2023-09-12T07:47:19;102399.97;;;19.43;100.00
13420;BME280;6781;58.440;15.470;2023-09-12T07:49:52;102424.91;;;19.89;100.00
13420;BME280;6781;58.440;15.470;2023-09-12T07:52:20;102423.53;;;19.94;100.00
13420;BME280;6781;58.440;15.470;2023-09-12T07:54:49;102270.97;;;19.24;100.00
13420;BME280;6781;58.440;15.470;2023-09-12T07:57:21;102302.06;;;19.78;100.00
13420;BME280;6781;58.440;15.470;2023-09-12T07:59:48;102135.53;;;18.89;100.00
13420;BME280;6781;58.440;15.470;2023-09-12T08:02:16;102274.59;;;20.09;100.00
13420;BME280;6781;58.440;15.470;2023-09-12T08:04:43;102247.69;;;20.06;100.00
13420;BME280;6781;58.440;15.470;2023-09-12T08:07:12;102022.03;;;18.94;100.00
13420;BME280;6781;58.440;15.470;2023-09-12T08:09:50;102110.00;;;19.67;100.00
13420;BME280;6781;58.440;15.470;2023-09-12T08:12:18;102128.44;;;20.04;100.00
13420;BME280;6781;58.440;15.470;2023-09-12T08:14:46;102007.09;;;19.41;100.00
13420;BME280;6781;58.440;15.470;2023-09-12T08:17:14;101953.41;;;19.24;100.00
13420;BME280;6781;58.440;15.470;2023-09-12T08:19:43;101968.44;;;19.41;100.00
13420;BME280;6781;58.440;15.470;2023-09-12T08:22:12;101992.09;;;19.61;100.00
13420;BME280;6781;58.440;15.470;2023-09-12T08:24:39;101999.91;;;19.80;100.00
13420;BME280;6781;58.440;15.470;2023-09-12T08:27:07;101940.09;;;19.35;100.00
13420;BME280;6781;58.440;15.470;2023-09-12T08:29:34;102000.69;;;19.90;100.00
13420;BME280;6781;58.440;15.470;2023-09-12T08:32:02;101924.38;;;19.53;100.00
13420;BME280;6781;58.440;15.470;2023-09-12T08:34:29;101878.28;;;19.39;100.00
13420;BME280;6781;58.440;15.470;2023-09-12T08:36:58;101907.69;;;19.62;100.00
13420;BME280;6781;58.440;15.470;2023-09-12T08:39:27;101916.75;;;19.77;100.00
13420;BME280;6781;58.440;15.470;2023-09-12T08:41:54;101976.63;;;20.21;100.00
13420;BME280;6781;58.440;15.470;2023-09-12T08:44:22;101876.84;;;19.55;100.00
13420;BME280;6781;58.440;15.470;2023-09-12T08:46:49;101946.44;;;20.15;100.00
13420;BME280;6781;58.440;15.470;2023-09-12T08:49:16;101865.50;;;19.72;100.00
13420;BME280;6781;58.440;15.470;2023-09-12T08:51:43;101831.00;;;19.47;100.00
13420;BME280;6781;58.440;15.470;2023-09-12T08:54:10;101832.09;;;19.55;100.00
13420;BME280;6781;58.440;15.470;2023-09-12T08:56:40;101820.09;;;19.42;100.00
13420;BME280;6781;58.440;15.470;2023-09-12T08:59:10;101754.34;;;19.15;100.00
13420;BME280;6781;58.440;15.470;2023-09-12T09:05:08;101701.75;;;19.15;100.00
13420;BME280;6781;58.440;15.470;2023-09-12T09:07:35;101686.69;;;19.07;100.00
13420;BME280;6781;58.440;15.470;2023-09-12T09:10:05;101850.00;;;20.40;100.00
13420;BME280;6781;58.440;15.470;2023-09-12T09:12:34;101847.94;;;20.52;100.00
13420;BME280;6781;58.440;15.470;2023-09-12T09:15:20;101825.34;;;20.83;100.00
13420;BME280;6781;58.440;15.470;2023-09-12T09:17:47;101742.88;;;20.65;100.00
13420;BME280;6781;58.440;15.470;2023-09-12T09:20:22;101609.69;;;20.19;100.00
13420;BME280;6781;58.440;15.470;2023-09-12T09:22:57;101580.75;;;20.27;100.00
13420;BME280;6781;58.440;15.470;2023-09-12T09:25:24;101539.91;;;20.31;100.00
13420;BME280;6781;58.440;15.470;2023-09-12T09:27:55;101645.91;;;21.33;100.00
13420;BME280;6781;58.440;15.470;2023-09-12T09:30:41;101611.91;;;21.30;100.00
13420;BME280;6781;58.440;15.470;2023-09-12T09:33:09;101402.53;;;20.34;100.00
13420;BME280;6781;58.440;15.470;2023-09-12T09:35:36;101406.84;;;20.59;100.00
13420;BME280;6781;58.440;15.470;2023-09-12T09:38:06;101332.56;;;20.31;100.00
13420;BME280;6781;58.440;15.470;2023-09-12T09:40:34;101389.31;;;20.91;100.00
13420;BME280;6781;58.440;15.470;2023-09-12T09:43:04;101423.19;;;21.26;100.00
13420;BME280;6781;58.440;15.470;2023-09-12T09:45:43;101359.91;;;21.10;100.00
13420;BME280;6781;58.440;15.470;2023-09-12T09:48:10;101327.56;;;21.08;100.00
13420;BME280;6781;58.440;15.470;2023-09-12T09:50:44;101381.22;;;21.48;100.00
13420;BME280;6781;58.440;15.470;2023-09-12T09:53:12;101297.28;;;20.96;100.00
13420;BME280;6781;58.440;15.470;2023-09-12T09:55:40;101373.81;;;21.43;100.00
13420;BME280;6781;58.440;15.470;2023-09-12T09:58:14;101119.41;;;20.36;100.00
13420;BME280;6781;58.440;15.470;2023-09-12T10:00:43;101290.91;;;21.52;100.00
13420;BME280;6781;58.440;15.470;2023-09-12T10:03:19;101081.22;;;20.32;100.00
13420;BME280;6781;58.440;15.470;2023-09-12T10:05:56;101003.13;;;20.08;100.00
13420;BME280;6781;58.440;15.470;2023-09-12T10:08:26;101049.38;;;20.50;100.00
13420;BME280;6781;58.440;15.470;2023-09-12T10:10:57;100985.78;;;19.91;100.00
13420;BME280;6781;58.440;15.470;2023-09-12T10:13:38;101080.66;;;20.53;100.00
13420;BME280;6781;58.440;15.470;2023-09-12T10:16:07;100961.22;;;19.99;100.00
13420;BME280;6781;58.440;15.470;2023-09-12T10:18:41;101121.31;;;21.04;100.00
13420;BME280;6781;58.440;15.470;2023-09-12T10:21:17;100918.34;;;19.82;100.00
13420;BME280;6781;58.440;15.470;2023-09-12T10:23:49;100891.16;;;19.90;100.00
13420;BME280;6781;58.440;15.470;2023-09-12T10:26:17;100976.38;;;20.73;100.00
13420;BME280;6781;58.440;15.470;2023-09-12T10:28:45;101007.91;;;21.19;100.00
13420;BME280;6781;58.440;15.470;2023-09-12T10:31:14;100992.03;;;21.42;100.00
13420;BME280;6781;58.440;15.470;2023-09-12T10:33:45;100914.13;;;21.31;100.00
13420;BME280;6781;58.440;15.470;2023-09-12T10:36:15;100990.00;;;21.88;100.00
13420;BME280;6781;58.440;15.470;2023-09-12T10:38:45;100941.56;;;21.81;100.00
13420;BME280;6781;58.440;15.470;2023-09-12T10:41:14;100852.84;;;21.51;100.00
13420;BME280;6781;58.440;15.470;2023-09-12T10:43:43;100874.41;;;21.90;100.00
13420;BME280;6781;58.440;15.470;2023-09-12T10:46:14;100798.66;;;21.55;100.00
13420;BME280;6781;58.440;15.470;2023-09-12T10:48:41;100873.66;;;22.18;100.00
13420;BME280;6781;58.440;15.470;2023-09-12T10:51:10;100700.94;;;21.27;100.00
13420;BME280;6781;58.440;15.470;2023-09-12T10:53:38;100683.09;;;21.29;100.00
13420;BME280;6781;58.440;15.470;2023-09-12T10:56:17;100713.56;;;21.53;100.00
13420;BME280;6781;58.440;15.470;2023-09-12T10:59:09;100768.88;;;22.03;100.00
13420;BME280;6781;58.440;15.470;2023-09-12T11:01:39;100673.97;;;21.53;100.00
13420;BME280;6781;58.440;15.470;2023-09-12T11:04:37;100732.56;;;22.47;100.00
13420;BME280;6781;58.440;15.470;2023-09-12T11:07:43;100731.41;;;22.62;100.00
13420;BME280;6781;58.440;15.470;2023-09-12T11:10:20;100647.53;;;22.43;100.00
13420;BME280;6781;58.440;15.470;2023-09-12T11:12:49;100714.03;;;22.88;100.00
13420;BME280;6781;58.440;15.470;2023-09-12T11:15:19;100613.97;;;22.37;100.00
13420;BME280;6781;58.440;15.470;2023-09-12T11:20:26;100646.94;;;23.35;100.00
13420;BME280;6781;58.440;15.470;2023-09-12T11:22:53;100550.63;;;23.03;100.00
13420;BME280;6781;58.440;15.470;2023-09-12T11:25:21;100502.34;;;22.61;100.00
13420;BME280;6781;58.440;15.470;2023-09-12T11:28:03;100562.22;;;23.02;100.00
13420;BME280;6781;58.440;15.470;2023-09-12T11:30:31;100396.47;;;21.82;100.00
13420;BME280;6781;58.440;15.470;2023-09-12T11:33:06;100576.41;;;22.74;100.00
13420;BME280;6781;58.440;15.470;2023-09-12T11:35:37;100546.91;;;22.71;100.00
13420;BME280;6781;58.440;15.470;2023-09-12T11:38:10;100479.91;;;22.18;100.00
13420;BME280;6781;58.440;15.470;2023-09-12T11:40:44;100470.13;;;22.05;100.00
13420;BME280;6781;58.440;15.470;2023-09-12T11:43:20;100463.31;;;21.83;100.00
13420;BME280;6781;58.440;15.470;2023-09-12T11:45:49;100527.84;;;22.08;100.00
13420;BME280;6781;58.440;15.470;2023-09-12T11:48:18;100566.50;;;22.16;100.00
13420;BME280;6781;58.440;15.470;2023-09-12T11:50:55;100585.72;;;22.44;100.00
13420;BME280;6781;58.440;15.470;2023-09-12T11:53:24;100544.66;;;22.00;100.00
13420;BME280;6781;58.440;15.470;2023-09-12T11:55:54;100608.50;;;22.45;100.00
13420;BME280;6781;58.440;15.470;2023-09-12T11:58:21;100633.75;;;22.61;100.00
13420;BME280;6781;58.440;15.470;2023-09-12T12:00:50;100457.16;;;21.69;100.00
13420;BME280;6781;58.440;15.470;2023-09-12T12:03:22;100517.38;;;21.87;100.00
13420;BME280;6781;58.440;15.470;2023-09-12T12:05:49;100558.84;;;21.93;100.00
13420;BME280;6781;58.440;15.470;2023-09-12T12:08:18;100655.28;;;22.45;100.00
13420;BME280;6781;58.440;15.470;2023-09-12T12:10:49;100654.84;;;22.41;100.00
13420;BME280;6781;58.440;15.470;2023-09-12T12:13:17;100538.13;;;21.55;100.00
13420;BME280;6781;58.440;15.470;2023-09-12T12:15:44;100534.88;;;21.53;100.00
13420;BME280;6781;58.440;15.470;2023-09-12T12:18:11;100532.56;;;21.43;100.00
13420;BME280;6781;58.440;15.470;2023-09-12T12:20:40;100612.63;;;21.79;100.00
13420;BME280;6781;58.440;15.470;2023-09-12T12:23:10;100522.44;;;21.19;100.00
13420;BME280;6781;58.440;15.470;2023-09-12T12:25:40;100644.31;;;22.06;100.00
13420;BME280;6781;58.440;15.470;2023-09-12T12:28:10;100675.53;;;22.31;100.00
13420;BME280;6781;58.440;15.470;2023-09-12T12:30:42;100572.09;;;21.65;100.00
13420;BME280;6781;58.440;15.470;2023-09-12T12:33:14;100568.22;;;21.61;100.00
13420;BME280;6781;58.440;15.470;2023-09-12T12:35:44;100683.59;;;22.16;100.00
13420;BME280;6781;58.440;15.470;2023-09-12T12:38:12;100623.56;;;21.48;100.00
13420;BME280;6781;58.440;15.470;2023-09-12T12:40:39;100606.72;;;21.49;100.00
13420;BME280;6781;58.440;15.470;2023-09-12T12:43:16;100730.59;;;21.99;100.00
13420;BME280;6781;58.440;15.470;2023-09-12T12:45:52;100627.41;;;21.24;100.00
13420;BME280;6781;58.440;15.470;2023-09-12T12:48:29;100752.13;;;21.96;100.00
13420;BME280;6781;58.440;15.470;2023-09-12T12:50:58;100563.06;;;20.75;100.00
13420;BME280;6781;58.440;15.470;2023-09-12T12:53:38;100640.63;;;21.24;100.00
13420;BME280;6781;58.440;15.470;2023-09-12T12:56:05;100616.66;;;21.04;100.00
13420;BME280;6781;58.440;15.470;2023-09-12T12:58:33;100560.53;;;20.67;100.00